Devils Lake, ND (58301)

9:45 AM CST on December 03, 2016 (GMT -0600)
Lake Region RadioWorks | | Change Station

Elev 1431 ft 48.11 °N, 98.87 °W | Updated 7 seconds ago

Light Snow
Light Snow Mist
26.3 °F
Feels Like 16 °F
N
11.0
Wind Variable Wind from SSE
Gusts 17.0 mph

Today
High -- | Low -- °F
--% Chance of Precip.
Yesterday
High -- | Low -- °F
Precip. -- in
Pressure 30.16 in
Visibility 6.0 miles
Clouds Overcast 500 ft
Windchill 16 °F
Dew Point 24 °F
Humidity 92%
Rainfall 0.00 in
Snow Depth Not available.
8:07 AM 4:43 PM
Waxing Crescent, 15% visible
METAR KDVL 031456Z AUTO 17017G21KT 6SM -SN BR OVC005 M03/M04 A3005 RMK AO2 SNB11 SLP213 P0000 60000 T10331039 56015 FZRANO
Pressure 30.16 in
Visibility 6.0 miles
Clouds Overcast 500 ft
Windchill 16 °F
Dew Point 24 °F
Humidity 92%
Rainfall 0.00 in
Snow Depth Not available.
8:07 AM 4:43 PM
Waxing Crescent, 15% visible
METAR KDVL 031456Z AUTO 17017G21KT 6SM -SN BR OVC005 M03/M04 A3005 RMK AO2 SNB11 SLP213 P0000 60000 T10331039 56015 FZRANO

10-Day Weather Forecast

Almanac

Astronomy

Dec. 03, 2016 Rise Set
Actual Time
Civil Twilight
Nautical Twilight
Astronomical Twilight
Moon
Length of Visible Light
Length of Day
Tomorrow will be .
, % of the Moon is Illuminated

Today's Extremes

State Highs State Lows

Community

WunderPhotos

Upload Photos

1,955,427 photos uploaded!

WunderBlog® & News

Nearby

Air Quality

  Air Quality AQ Index Pollutant
Not available.

Snow Depth

Station Depth Elevation

Earthquake Activity

City Distance Mag. Time & Date
Minimum magnitude displayed is 2.5.

Coastal Water Temperatures

Place Temperature

Stations

Nearby Weather Stations

Station Location Temp. Windchill Dew Point Humidity Wind Precip. Elev Updated Type
                   

Watches & Warnings

There are currently no watches in effect.